sensor_id;sensor_type;location;lat;lon;timestamp;P1;durP1;ratioP1;P2;durP2;ratioP2
3795;SDS011;1913;50.660;7.834;2023-08-21T00:00:47;26.50;;;19.57;;
3795;SDS011;1913;50.660;7.834;2023-08-21T00:03:12;26.73;;;19.83;;
3795;SDS011;1913;50.660;7.834;2023-08-21T00:05:37;24.00;;;18.80;;
3795;SDS011;1913;50.660;7.834;2023-08-21T00:08:03;25.50;;;19.23;;
3795;SDS011;1913;50.660;7.834;2023-08-21T00:10:29;31.93;;;20.43;;
3795;SDS011;1913;50.660;7.834;2023-08-21T00:12:55;30.37;;;20.47;;
3795;SDS011;1913;50.660;7.834;2023-08-21T00:15:20;27.30;;;20.00;;
3795;SDS011;1913;50.660;7.834;2023-08-21T00:17:46;34.13;;;21.80;;
3795;SDS011;1913;50.660;7.834;2023-08-21T00:20:12;29.33;;;20.40;;
3795;SDS011;1913;50.660;7.834;2023-08-21T00:22:37;28.20;;;19.77;;
3795;SDS011;1913;50.660;7.834;2023-08-21T00:25:03;34.20;;;23.17;;
3795;SDS011;1913;50.660;7.834;2023-08-21T00:27:29;28.07;;;20.20;;
3795;SDS011;1913;50.660;7.834;2023-08-21T00:29:55;27.17;;;19.53;;
3795;SDS011;1913;50.660;7.834;2023-08-21T00:32:20;33.37;;;19.93;;
3795;SDS011;1913;50.660;7.834;2023-08-21T00:34:46;33.43;;;21.53;;
3795;SDS011;1913;50.660;7.834;2023-08-21T00:37:11;32.07;;;20.83;;
3795;SDS011;1913;50.660;7.834;2023-08-21T00:39:36;25.10;;;20.80;;
3795;SDS011;1913;50.660;7.834;2023-08-21T00:42:02;30.73;;;20.37;;
3795;SDS011;1913;50.660;7.834;2023-08-21T00:44:27;31.40;;;20.30;;
3795;SDS011;1913;50.660;7.834;2023-08-21T00:46:53;27.23;;;20.03;;
3795;SDS011;1913;50.660;7.834;2023-08-21T00:49:18;29.07;;;18.90;;
3795;SDS011;1913;50.660;7.834;2023-08-21T00:51:45;28.00;;;19.77;;
3795;SDS011;1913;50.660;7.834;2023-08-21T00:54:11;31.93;;;19.87;;
3795;SDS011;1913;50.660;7.834;2023-08-21T00:56:36;27.97;;;19.93;;
3795;SDS011;1913;50.660;7.834;2023-08-21T00:59:02;31.37;;;19.43;;
3795;SDS011;1913;50.660;7.834;2023-08-21T01:01:27;30.33;;;18.93;;
3795;SDS011;1913;50.660;7.834;2023-08-21T01:03:53;30.77;;;19.63;;
3795;SDS011;1913;50.660;7.834;2023-08-21T01:06:19;31.67;;;20.47;;
3795;SDS011;1913;50.660;7.834;2023-08-21T01:11:37;25.03;;;18.13;;
3795;SDS011;1913;50.660;7.834;2023-08-21T01:16:42;27.07;;;19.40;;
3795;SDS011;1913;50.660;7.834;2023-08-21T01:19:10;26.67;;;19.63;;
3795;SDS011;1913;50.660;7.834;2023-08-21T01:21:46;27.53;;;20.43;;
3795;SDS011;1913;50.660;7.834;2023-08-21T01:24:12;29.97;;;19.23;;
3795;SDS011;1913;50.660;7.834;2023-08-21T01:26:37;29.17;;;20.23;;
3795;SDS011;1913;50.660;7.834;2023-08-21T01:29:02;34.50;;;21.93;;
3795;SDS011;1913;50.660;7.834;2023-08-21T01:31:30;36.90;;;21.37;;
3795;SDS011;1913;50.660;7.834;2023-08-21T01:34:00;40.73;;;20.37;;
3795;SDS011;1913;50.660;7.834;2023-08-21T01:36:29;30.10;;;19.90;;
3795;SDS011;1913;50.660;7.834;2023-08-21T01:38:55;30.80;;;22.10;;
3795;SDS011;1913;50.660;7.834;2023-08-21T01:41:24;33.57;;;21.93;;
3795;SDS011;1913;50.660;7.834;2023-08-21T01:43:50;31.90;;;21.73;;
3795;SDS011;1913;50.660;7.834;2023-08-21T01:46:16;30.53;;;21.30;;
3795;SDS011;1913;50.660;7.834;2023-08-21T01:48:44;28.97;;;18.37;;
3795;SDS011;1913;50.660;7.834;2023-08-21T01:51:09;32.43;;;20.47;;
3795;SDS011;1913;50.660;7.834;2023-08-21T01:53:35;25.50;;;17.03;;
3795;SDS011;1913;50.660;7.834;2023-08-21T01:56:00;28.73;;;17.63;;
3795;SDS011;1913;50.660;7.834;2023-08-21T01:58:25;25.80;;;20.00;;
3795;SDS011;1913;50.660;7.834;2023-08-21T02:00:51;27.37;;;19.73;;
3795;SDS011;1913;50.660;7.834;2023-08-21T02:03:16;24.70;;;18.37;;
3795;SDS011;1913;50.660;7.834;2023-08-21T02:05:42;32.70;;;22.70;;
3795;SDS011;1913;50.660;7.834;2023-08-21T02:08:09;28.80;;;19.00;;
3795;SDS011;1913;50.660;7.834;2023-08-21T02:10:37;37.03;;;21.73;;
3795;SDS011;1913;50.660;7.834;2023-08-21T02:13:02;26.97;;;20.50;;
3795;SDS011;1913;50.660;7.834;2023-08-21T02:15:28;31.50;;;20.70;;
3795;SDS011;1913;50.660;7.834;2023-08-21T02:17:53;27.73;;;20.00;;
3795;SDS011;1913;50.660;7.834;2023-08-21T02:20:19;35.67;;;22.00;;
3795;SDS011;1913;50.660;7.834;2023-08-21T02:22:45;29.57;;;21.23;;
3795;SDS011;1913;50.660;7.834;2023-08-21T02:25:10;32.97;;;21.80;;
3795;SDS011;1913;50.660;7.834;2023-08-21T02:27:35;35.00;;;21.53;;
3795;SDS011;1913;50.660;7.834;2023-08-21T02:30:01;26.07;;;19.07;;
3795;SDS011;1913;50.660;7.834;2023-08-21T02:32:27;29.40;;;19.20;;
3795;SDS011;1913;50.660;7.834;2023-08-21T02:34:52;31.83;;;22.57;;
3795;SDS011;1913;50.660;7.834;2023-08-21T02:37:18;31.57;;;21.20;;
3795;SDS011;1913;50.660;7.834;2023-08-21T02:39:43;34.53;;;21.40;;
3795;SDS011;1913;50.660;7.834;2023-08-21T02:42:08;41.40;;;23.70;;
3795;SDS011;1913;50.660;7.834;2023-08-21T02:44:34;32.60;;;19.70;;
3795;SDS011;1913;50.660;7.834;2023-08-21T02:46:59;39.90;;;22.07;;
3795;SDS011;1913;50.660;7.834;2023-08-21T02:49:25;30.60;;;20.57;;
3795;SDS011;1913;50.660;7.834;2023-08-21T02:51:50;34.97;;;22.70;;
3795;SDS011;1913;50.660;7.834;2023-08-21T02:54:16;28.47;;;20.37;;
3795;SDS011;1913;50.660;7.834;2023-08-21T02:56:41;30.87;;;20.60;;
3795;SDS011;1913;50.660;7.834;2023-08-21T02:59:06;32.23;;;21.73;;
3795;SDS011;1913;50.660;7.834;2023-08-21T03:01:32;31.30;;;23.60;;
3795;SDS011;1913;50.660;7.834;2023-08-21T03:03:58;35.33;;;24.03;;
3795;SDS011;1913;50.660;7.834;2023-08-21T03:06:23;39.77;;;23.90;;
3795;SDS011;1913;50.660;7.834;2023-08-21T03:08:48;32.13;;;21.17;;
3795;SDS011;1913;50.660;7.834;2023-08-21T03:11:14;36.87;;;23.83;;
3795;SDS011;1913;50.660;7.834;2023-08-21T03:13:39;29.70;;;22.90;;
3795;SDS011;1913;50.660;7.834;2023-08-21T03:16:06;27.90;;;21.73;;
3795;SDS011;1913;50.660;7.834;2023-08-21T03:18:31;32.07;;;22.00;;
3795;SDS011;1913;50.660;7.834;2023-08-21T03:20:57;26.83;;;20.50;;
3795;SDS011;1913;50.660;7.834;2023-08-21T03:23:23;27.87;;;20.33;;
3795;SDS011;1913;50.660;7.834;2023-08-21T03:25:48;26.07;;;19.97;;
3795;SDS011;1913;50.660;7.834;2023-08-21T03:28:17;26.00;;;19.00;;
3795;SDS011;1913;50.660;7.834;2023-08-21T03:30:42;22.23;;;17.77;;
3795;SDS011;1913;50.660;7.834;2023-08-21T03:33:09;20.80;;;17.10;;
3795;SDS011;1913;50.660;7.834;2023-08-21T03:35:34;27.13;;;18.23;;
3795;SDS011;1913;50.660;7.834;2023-08-21T03:37:59;22.37;;;17.50;;
3795;SDS011;1913;50.660;7.834;2023-08-21T03:40:25;24.60;;;16.33;;
3795;SDS011;1913;50.660;7.834;2023-08-21T03:42:50;19.10;;;16.20;;
3795;SDS011;1913;50.660;7.834;2023-08-21T03:45:16;21.40;;;16.63;;
3795;SDS011;1913;50.660;7.834;2023-08-21T03:47:42;17.40;;;15.10;;
3795;SDS011;1913;50.660;7.834;2023-08-21T03:50:07;20.23;;;14.93;;
3795;SDS011;1913;50.660;7.834;2023-08-21T03:52:33;19.33;;;14.90;;
3795;SDS011;1913;50.660;7.834;2023-08-21T03:54:58;18.33;;;13.10;;
3795;SDS011;1913;50.660;7.834;2023-08-21T03:57:24;23.53;;;14.13;;
3795;SDS011;1913;50.660;7.834;2023-08-21T03:59:49;16.13;;;13.70;;
3795;SDS011;1913;50.660;7.834;2023-08-21T04:02:14;21.13;;;13.60;;
3795;SDS011;1913;50.660;7.834;2023-08-21T04:04:40;17.77;;;13.00;;
3795;SDS011;1913;50.660;7.834;2023-08-21T04:07:05;19.70;;;13.93;;
3795;SDS011;1913;50.660;7.834;2023-08-21T04:09:31;16.97;;;13.40;;
3795;SDS011;1913;50.660;7.834;2023-08-21T04:11:56;15.20;;;12.20;;
3795;SDS011;1913;50.660;7.834;2023-08-21T04:14:22;17.70;;;12.47;;
3795;SDS011;1913;50.660;7.834;2023-08-21T04:16:47;19.80;;;11.70;;
3795;SDS011;1913;50.660;7.834;2023-08-21T04:19:13;18.40;;;11.80;;
3795;SDS011;1913;50.660;7.834;2023-08-21T04:21:38;14.07;;;12.07;;
3795;SDS011;1913;50.660;7.834;2023-08-21T04:24:03;14.50;;;11.50;;
3795;SDS011;1913;50.660;7.834;2023-08-21T04:26:29;16.30;;;12.20;;
3795;SDS011;1913;50.660;7.834;2023-08-21T04:28:55;18.83;;;12.90;;
3795;SDS011;1913;50.660;7.834;2023-08-21T04:31:20;16.50;;;12.10;;
3795;SDS011;1913;50.660;7.834;2023-08-21T04:33:46;17.53;;;12.10;;
3795;SDS011;1913;50.660;7.834;2023-08-21T04:36:15;15.43;;;11.20;;
3795;SDS011;1913;50.660;7.834;2023-08-21T04:38:41;16.40;;;12.27;;
3795;SDS011;1913;50.660;7.834;2023-08-21T04:41:07;14.40;;;11.70;;
3795;SDS011;1913;50.660;7.834;2023-08-21T04:43:34;17.20;;;11.73;;
3795;SDS011;1913;50.660;7.834;2023-08-21T04:45:59;12.70;;;11.00;;
3795;SDS011;1913;50.660;7.834;2023-08-21T04:48:25;15.00;;;11.23;;
3795;SDS011;1913;50.660;7.834;2023-08-21T04:50:50;13.33;;;10.50;;
3795;SDS011;1913;50.660;7.834;2023-08-21T04:53:16;15.17;;;11.27;;
3795;SDS011;1913;50.660;7.834;2023-08-21T04:55:42;13.07;;;10.37;;
3795;SDS011;1913;50.660;7.834;2023-08-21T04:58:08;16.07;;;10.90;;
3795;SDS011;1913;50.660;7.834;2023-08-21T05:00:34;14.83;;;11.20;;
3795;SDS011;1913;50.660;7.834;2023-08-21T05:02:59;13.50;;;10.60;;
3795;SDS011;1913;50.660;7.834;2023-08-21T05:05:25;14.93;;;9.30;;
3795;SDS011;1913;50.660;7.834;2023-08-21T05:07:51;11.50;;;8.73;;
3795;SDS011;1913;50.660;7.834;2023-08-21T05:10:17;12.90;;;9.30;;
3795;SDS011;1913;50.660;7.834;2023-08-21T05:12:42;11.60;;;9.17;;
3795;SDS011;1913;50.660;7.834;2023-08-21T05:15:08;13.23;;;8.60;;
3795;SDS011;1913;50.660;7.834;2023-08-21T05:17:34;22.40;;;8.87;;
3795;SDS011;1913;50.660;7.834;2023-08-21T05:19:59;11.63;;;9.00;;
3795;SDS011;1913;50.660;7.834;2023-08-21T05:22:25;10.27;;;7.93;;
3795;SDS011;1913;50.660;7.834;2023-08-21T05:24:50;12.43;;;8.83;;
3795;SDS011;1913;50.660;7.834;2023-08-21T05:27:15;9.10;;;7.77;;
3795;SDS011;1913;50.660;7.834;2023-08-21T05:29:41;9.37;;;7.70;;
3795;SDS011;1913;50.660;7.834;2023-08-21T05:32:06;8.70;;;7.20;;
3795;SDS011;1913;50.660;7.834;2023-08-21T05:34:32;14.80;;;7.90;;
3795;SDS011;1913;50.660;7.834;2023-08-21T05:36:57;8.47;;;7.00;;
3795;SDS011;1913;50.660;7.834;2023-08-21T05:39:23;8.87;;;7.97;;
3795;SDS011;1913;50.660;7.834;2023-08-21T05:41:48;15.73;;;8.63;;
3795;SDS011;1913;50.660;7.834;2023-08-21T05:44:15;8.90;;;7.23;;
3795;SDS011;1913;50.660;7.834;2023-08-21T05:46:41;10.80;;;6.70;;
3795;SDS011;1913;50.660;7.834;2023-08-21T05:49:07;9.90;;;7.93;;
3795;SDS011;1913;50.660;7.834;2023-08-21T05:51:33;13.03;;;7.83;;
3795;SDS011;1913;50.660;7.834;2023-08-21T05:53:59;12.73;;;7.70;;
3795;SDS011;1913;50.660;7.834;2023-08-21T05:56:24;11.83;;;7.50;;
3795;SDS011;1913;50.660;7.834;2023-08-21T05:58:49;8.70;;;7.10;;
3795;SDS011;1913;50.660;7.834;2023-08-21T06:01:15;11.00;;;7.07;;
3795;SDS011;1913;50.660;7.834;2023-08-21T06:03:41;7.20;;;6.50;;
3795;SDS011;1913;50.660;7.834;2023-08-21T06:06:07;11.40;;;5.80;;
3795;SDS011;1913;50.660;7.834;2023-08-21T06:08:33;8.43;;;7.03;;
3795;SDS011;1913;50.660;7.834;2023-08-21T06:10:58;10.00;;;6.90;;
3795;SDS011;1913;50.660;7.834;2023-08-21T06:13:24;6.80;;;6.13;;
3795;SDS011;1913;50.660;7.834;2023-08-21T06:15:50;8.83;;;6.87;;
3795;SDS011;1913;50.660;7.834;2023-08-21T06:18:16;8.40;;;7.20;;
3795;SDS011;1913;50.660;7.834;2023-08-21T06:20:42;8.20;;;6.10;;
3795;SDS011;1913;50.660;7.834;2023-08-21T06:23:09;9.27;;;7.17;;
3795;SDS011;1913;50.660;7.834;2023-08-21T06:25:35;8.10;;;7.30;;
3795;SDS011;1913;50.660;7.834;2023-08-21T06:28:01;7.37;;;6.57;;
3795;SDS011;1913;50.660;7.834;2023-08-21T06:30:27;7.80;;;6.30;;
3795;SDS011;1913;50.660;7.834;2023-08-21T06:32:52;7.50;;;6.67;;
3795;SDS011;1913;50.660;7.834;2023-08-21T06:35:18;6.90;;;6.03;;
3795;SDS011;1913;50.660;7.834;2023-08-21T06:37:43;8.87;;;6.00;;
3795;SDS011;1913;50.660;7.834;2023-08-21T06:40:09;9.70;;;6.40;;
3795;SDS011;1913;50.660;7.834;2023-08-21T06:42:34;8.03;;;6.20;;
3795;SDS011;1913;50.660;7.834;2023-08-21T06:45:00;7.80;;;6.60;;
3795;SDS011;1913;50.660;7.834;2023-08-21T06:47:25;7.87;;;6.27;;
3795;SDS011;1913;50.660;7.834;2023-08-21T06:49:51;7.40;;;6.60;;
3795;SDS011;1913;50.660;7.834;2023-08-21T06:52:17;9.67;;;6.07;;
3795;SDS011;1913;50.660;7.834;2023-08-21T06:54:42;9.17;;;7.33;;
3795;SDS011;1913;50.660;7.834;2023-08-21T06:57:08;8.40;;;6.13;;
3795;SDS011;1913;50.660;7.834;2023-08-21T06:59:33;9.17;;;6.80;;
3795;SDS011;1913;50.660;7.834;2023-08-21T07:02:03;7.87;;;6.53;;
3795;SDS011;1913;50.660;7.834;2023-08-21T07:04:29;7.63;;;6.00;;
3795;SDS011;1913;50.660;7.834;2023-08-21T07:06:54;11.20;;;6.70;;
3795;SDS011;1913;50.660;7.834;2023-08-21T07:09:20;10.00;;;6.50;;
3795;SDS011;1913;50.660;7.834;2023-08-21T07:11:45;9.00;;;6.23;;
3795;SDS011;1913;50.660;7.834;2023-08-21T07:14:11;6.27;;;5.60;;
3795;SDS011;1913;50.660;7.834;2023-08-21T07:16:38;8.23;;;5.67;;
3795;SDS011;1913;50.660;7.834;2023-08-21T07:19:04;7.63;;;5.80;;
3795;SDS011;1913;50.660;7.834;2023-08-21T07:21:30;8.00;;;6.47;;
3795;SDS011;1913;50.660;7.834;2023-08-21T07:23:55;6.70;;;6.00;;
3795;SDS011;1913;50.660;7.834;2023-08-21T07:26:20;8.87;;;6.97;;
3795;SDS011;1913;50.660;7.834;2023-08-21T07:28:46;6.97;;;6.27;;
3795;SDS011;1913;50.660;7.834;2023-08-21T07:31:12;9.27;;;7.07;;
3795;SDS011;1913;50.660;7.834;2023-08-21T07:33:37;9.60;;;7.53;;
3795;SDS011;1913;50.660;7.834;2023-08-21T07:36:03;13.10;;;6.50;;
3795;SDS011;1913;50.660;7.834;2023-08-21T07:38:30;9.67;;;7.20;;
3795;SDS011;1913;50.660;7.834;2023-08-21T07:41:06;11.20;;;6.70;;
3795;SDS011;1913;50.660;7.834;2023-08-21T07:43:34;11.90;;;6.87;;
3795;SDS011;1913;50.660;7.834;2023-08-21T07:46:03;9.40;;;6.33;;
3795;SDS011;1913;50.660;7.834;2023-08-21T07:48:29;8.23;;;6.33;;
3795;SDS011;1913;50.660;7.834;2023-08-21T07:50:54;9.00;;;6.70;;
3795;SDS011;1913;50.660;7.834;2023-08-21T07:53:20;8.37;;;6.70;;
3795;SDS011;1913;50.660;7.834;2023-08-21T07:55:45;7.83;;;6.50;;
3795;SDS011;1913;50.660;7.834;2023-08-21T07:58:11;8.20;;;6.40;;
3795;SDS011;1913;50.660;7.834;2023-08-21T08:00:37;8.60;;;6.87;;
3795;SDS011;1913;50.660;7.834;2023-08-21T08:03:04;7.47;;;6.23;;
3795;SDS011;1913;50.660;7.834;2023-08-21T08:05:30;7.63;;;6.10;;
3795;SDS011;1913;50.660;7.834;2023-08-21T08:07:57;7.23;;;6.07;;
3795;SDS011;1913;50.660;7.834;2023-08-21T08:10:23;7.93;;;6.73;;
3795;SDS011;1913;50.660;7.834;2023-08-21T08:12:49;19.23;;;6.70;;
3795;SDS011;1913;50.660;7.834;2023-08-21T08:15:16;7.90;;;5.77;;
3795;SDS011;1913;50.660;7.834;2023-08-21T08:17:41;7.30;;;5.67;;
3795;SDS011;1913;50.660;7.834;2023-08-21T08:20:07;8.13;;;6.30;;
3795;SDS011;1913;50.660;7.834;2023-08-21T08:22:33;6.97;;;6.27;;
3795;SDS011;1913;50.660;7.834;2023-08-21T08:24:58;6.93;;;6.23;;
3795;SDS011;1913;50.660;7.834;2023-08-21T08:27:24;8.57;;;6.50;;
3795;SDS011;1913;50.660;7.834;2023-08-21T08:29:49;7.30;;;6.30;;
3795;SDS011;1913;50.660;7.834;2023-08-21T08:32:15;7.83;;;6.50;;
3795;SDS011;1913;50.660;7.834;2023-08-21T08:34:40;6.47;;;5.87;;
3795;SDS011;1913;50.660;7.834;2023-08-21T08:37:06;8.50;;;5.90;;
3795;SDS011;1913;50.660;7.834;2023-08-21T08:39:31;8.20;;;6.47;;
3795;SDS011;1913;50.660;7.834;2023-08-21T08:42:03;7.20;;;6.50;;
3795;SDS011;1913;50.660;7.834;2023-08-21T08:44:31;7.57;;;6.70;;
3795;SDS011;1913;50.660;7.834;2023-08-21T08:47:00;8.73;;;6.30;;
3795;SDS011;1913;50.660;7.834;2023-08-21T08:49:26;7.77;;;6.20;;
3795;SDS011;1913;50.660;7.834;2023-08-21T08:51:53;6.43;;;5.80;;
3795;SDS011;1913;50.660;7.834;2023-08-21T08:54:22;7.80;;;5.90;;
3795;SDS011;1913;50.660;7.834;2023-08-21T08:56:47;7.33;;;6.00;;
3795;SDS011;1913;50.660;7.834;2023-08-21T08:59:13;5.83;;;5.23;;
3795;SDS011;1913;50.660;7.834;2023-08-21T09:01:40;7.70;;;6.00;;
3795;SDS011;1913;50.660;7.834;2023-08-21T09:04:06;7.40;;;5.93;;
3795;SDS011;1913;50.660;7.834;2023-08-21T09:06:32;9.70;;;6.60;;
3795;SDS011;1913;50.660;7.834;2023-08-21T09:08:57;7.23;;;6.53;;
3795;SDS011;1913;50.660;7.834;2023-08-21T09:11:23;6.60;;;5.80;;
3795;SDS011;1913;50.660;7.834;2023-08-21T09:13:50;8.30;;;6.50;;
3795;SDS011;1913;50.660;7.834;2023-08-21T09:16:19;7.27;;;5.20;;
3795;SDS011;1913;50.660;7.834;2023-08-21T09:18:49;9.50;;;5.90;;
3795;SDS011;1913;50.660;7.834;2023-08-21T09:21:16;6.43;;;5.70;;
3795;SDS011;1913;50.660;7.834;2023-08-21T09:23:45;9.73;;;5.83;;
3795;SDS011;1913;50.660;7.834;2023-08-21T09:26:19;8.57;;;6.47;;
3795;SDS011;1913;50.660;7.834;2023-08-21T09:28:49;9.57;;;7.00;;
3795;SDS011;1913;50.660;7.834;2023-08-21T09:31:15;13.50;;;6.33;;
3795;SDS011;1913;50.660;7.834;2023-08-21T09:33:41;14.60;;;6.23;;
3795;SDS011;1913;50.660;7.834;2023-08-21T09:36:07;10.17;;;6.07;;
3795;SDS011;1913;50.660;7.834;2023-08-21T09:38:34;5.97;;;5.30;;
3795;SDS011;1913;50.660;7.834;2023-08-21T09:41:02;7.53;;;6.17;;
3795;SDS011;1913;50.660;7.834;2023-08-21T09:43:28;7.67;;;5.63;;
3795;SDS011;1913;50.660;7.834;2023-08-21T09:45:54;6.93;;;6.23;;
3795;SDS011;1913;50.660;7.834;2023-08-21T09:48:24;9.43;;;6.43;;
3795;SDS011;1913;50.660;7.834;2023-08-21T09:50:54;7.37;;;6.67;;
3795;SDS011;1913;50.660;7.834;2023-08-21T09:53:21;10.53;;;6.07;;
3795;SDS011;1913;50.660;7.834;2023-08-21T09:55:48;8.93;;;5.20;;
3795;SDS011;1913;50.660;7.834;2023-08-21T09:58:17;6.63;;;4.87;;
3795;SDS011;1913;50.660;7.834;2023-08-21T10:00:44;6.00;;;4.73;;
3795;SDS011;1913;50.660;7.834;2023-08-21T10:03:13;4.80;;;4.40;;
3795;SDS011;1913;50.660;7.834;2023-08-21T10:05:43;5.33;;;4.83;;
3795;SDS011;1913;50.660;7.834;2023-08-21T10:08:08;7.40;;;5.47;;
3795;SDS011;1913;50.660;7.834;2023-08-21T10:10:35;9.40;;;5.07;;
3795;SDS011;1913;50.660;7.834;2023-08-21T10:13:02;9.23;;;5.43;;
3795;SDS011;1913;50.660;7.834;2023-08-21T10:15:29;8.83;;;5.17;;
3795;SDS011;1913;50.660;7.834;2023-08-21T10:18:17;6.23;;;5.63;;
3795;SDS011;1913;50.660;7.834;2023-08-21T10:20:49;10.37;;;5.60;;
3795;SDS011;1913;50.660;7.834;2023-08-21T10:23:28;6.20;;;5.30;;
3795;SDS011;1913;50.660;7.834;2023-08-21T10:25:56;7.73;;;5.00;;
3795;SDS011;1913;50.660;7.834;2023-08-21T10:28:23;6.10;;;5.47;;
3795;SDS011;1913;50.660;7.834;2023-08-21T10:30:48;5.73;;;4.60;;
3795;SDS011;1913;50.660;7.834;2023-08-21T10:33:14;5.87;;;5.37;;
3795;SDS011;1913;50.660;7.834;2023-08-21T10:35:39;5.90;;;5.40;;
3795;SDS011;1913;50.660;7.834;2023-08-21T10:40:30;7.80;;;4.93;;
3795;SDS011;1913;50.660;7.834;2023-08-21T10:42:56;6.07;;;4.90;;
3795;SDS011;1913;50.660;7.834;2023-08-21T10:45:21;6.20;;;5.03;;
3795;SDS011;1913;50.660;7.834;2023-08-21T10:47:46;6.03;;;4.50;;
3795;SDS011;1913;50.660;7.834;2023-08-21T10:50:14;7.33;;;4.97;;
3795;SDS011;1913;50.660;7.834;2023-08-21T10:52:40;10.47;;;4.53;;
3795;SDS011;1913;50.660;7.834;2023-08-21T10:55:07;7.43;;;3.90;;
3795;SDS011;1913;50.660;7.834;2023-08-21T10:57:34;4.83;;;3.80;;
3795;SDS011;1913;50.660;7.834;2023-08-21T11:00:05;5.50;;;4.13;;
3795;SDS011;1913;50.660;7.834;2023-08-21T11:02:34;6.47;;;4.70;;
3795;SDS011;1913;50.660;7.834;2023-08-21T11:05:01;5.23;;;4.73;;
3795;SDS011;1913;50.660;7.834;2023-08-21T11:07:29;4.93;;;4.43;;
3795;SDS011;1913;50.660;7.834;2023-08-21T11:09:55;6.37;;;4.37;;
3795;SDS011;1913;50.660;7.834;2023-08-21T11:12:22;4.50;;;3.20;;
3795;SDS011;1913;50.660;7.834;2023-08-21T11:14:48;4.23;;;3.70;;
3795;SDS011;1913;50.660;7.834;2023-08-21T11:17:14;7.03;;;4.13;;
3795;SDS011;1913;50.660;7.834;2023-08-21T11:19:40;6.63;;;4.60;;
3795;SDS011;1913;50.660;7.834;2023-08-21T11:22:08;6.23;;;3.40;;
3795;SDS011;1913;50.660;7.834;2023-08-21T11:27:02;10.37;;;3.70;;
3795;SDS011;1913;50.660;7.834;2023-08-21T11:29:37;5.10;;;4.23;;
3795;SDS011;1913;50.660;7.834;2023-08-21T11:32:09;5.20;;;4.30;;
3795;SDS011;1913;50.660;7.834;2023-08-21T11:34:42;5.00;;;4.20;;
3795;SDS011;1913;50.660;7.834;2023-08-21T11:37:13;5.93;;;4.77;;
3795;SDS011;1913;50.660;7.834;2023-08-21T11:39:39;4.13;;;3.63;;
3795;SDS011;1913;50.660;7.834;2023-08-21T11:42:08;5.80;;;4.73;;
3795;SDS011;1913;50.660;7.834;2023-08-21T11:44:43;5.20;;;4.50;;
3795;SDS011;1913;50.660;7.834;2023-08-21T11:47:15;7.40;;;5.20;;
3795;SDS011;1913;50.660;7.834;2023-08-21T11:49:42;6.53;;;5.33;;
3795;SDS011;1913;50.660;7.834;2023-08-21T11:52:13;6.00;;;4.97;;
3795;SDS011;1913;50.660;7.834;2023-08-21T11:54:40;5.73;;;4.33;;
3795;SDS011;1913;50.660;7.834;2023-08-21T11:57:08;5.23;;;4.73;;
3795;SDS011;1913;50.660;7.834;2023-08-21T11:59:38;7.57;;;4.43;;
3795;SDS011;1913;50.660;7.834;2023-08-21T12:02:08;3.40;;;3.10;;
3795;SDS011;1913;50.660;7.834;2023-08-21T12:04:39;5.10;;;3.60;;
3795;SDS011;1913;50.660;7.834;2023-08-21T12:07:05;3.93;;;3.40;;
3795;SDS011;1913;50.660;7.834;2023-08-21T12:09:30;3.17;;;2.70;;
3795;SDS011;1913;50.660;7.834;2023-08-21T12:11:56;5.97;;;2.70;;
3795;SDS011;1913;50.660;7.834;2023-08-21T12:14:22;3.17;;;2.80;;
3795;SDS011;1913;50.660;7.834;2023-08-21T12:16:48;8.63;;;3.70;;
3795;SDS011;1913;50.660;7.834;2023-08-21T12:19:13;3.57;;;3.27;;
3795;SDS011;1913;50.660;7.834;2023-08-21T12:21:39;4.50;;;4.07;;
3795;SDS011;1913;50.660;7.834;2023-08-21T12:24:05;5.03;;;4.47;;
3795;SDS011;1913;50.660;7.834;2023-08-21T12:26:31;8.43;;;4.53;;
3795;SDS011;1913;50.660;7.834;2023-08-21T12:28:58;4.00;;;3.50;;
3795;SDS011;1913;50.660;7.834;2023-08-21T12:31:23;3.63;;;2.97;;
3795;SDS011;1913;50.660;7.834;2023-08-21T12:33:49;5.30;;;2.87;;
3795;SDS011;1913;50.660;7.834;2023-08-21T12:36:15;4.30;;;2.83;;
3795;SDS011;1913;50.660;7.834;2023-08-21T12:38:40;6.33;;;3.73;;
3795;SDS011;1913;50.660;7.834;2023-08-21T12:41:05;5.27;;;3.90;;
3795;SDS011;1913;50.660;7.834;2023-08-21T12:43:31;4.83;;;4.43;;
3795;SDS011;1913;50.660;7.834;2023-08-21T12:45:57;4.77;;;4.37;;
3795;SDS011;1913;50.660;7.834;2023-08-21T12:48:23;6.13;;;4.33;;
3795;SDS011;1913;50.660;7.834;2023-08-21T12:50:48;7.47;;;4.37;;
3795;SDS011;1913;50.660;7.834;2023-08-21T12:53:15;5.13;;;4.63;;
3795;SDS011;1913;50.660;7.834;2023-08-21T12:55:40;6.03;;;4.27;;
3795;SDS011;1913;50.660;7.834;2023-08-21T12:58:06;5.07;;;3.70;;
3795;SDS011;1913;50.660;7.834;2023-08-21T13:00:33;5.53;;;3.87;;
3795;SDS011;1913;50.660;7.834;2023-08-21T13:02:59;4.80;;;3.60;;
3795;SDS011;1913;50.660;7.834;2023-08-21T13:05:24;8.00;;;3.77;;
3795;SDS011;1913;50.660;7.834;2023-08-21T13:07:51;4.97;;;3.20;;
3795;SDS011;1913;50.660;7.834;2023-08-21T13:10:18;4.90;;;3.63;;
3795;SDS011;1913;50.660;7.834;2023-08-21T13:12:44;3.47;;;3.20;;
3795;SDS011;1913;50.660;7.834;2023-08-21T13:15:10;5.40;;;3.40;;
3795;SDS011;1913;50.660;7.834;2023-08-21T13:17:36;3.90;;;3.40;;
3795;SDS011;1913;50.660;7.834;2023-08-21T13:20:02;7.33;;;3.97;;
3795;SDS011;1913;50.660;7.834;2023-08-21T13:22:28;5.57;;;3.73;;
3795;SDS011;1913;50.660;7.834;2023-08-21T13:24:54;5.57;;;3.67;;
3795;SDS011;1913;50.660;7.834;2023-08-21T13:27:20;6.53;;;3.93;;
3795;SDS011;1913;50.660;7.834;2023-08-21T13:29:46;4.70;;;3.23;;
3795;SDS011;1913;50.660;7.834;2023-08-21T13:32:11;5.50;;;3.47;;
3795;SDS011;1913;50.660;7.834;2023-08-21T13:34:37;8.77;;;3.77;;
3795;SDS011;1913;50.660;7.834;2023-08-21T13:37:02;3.70;;;3.17;;
3795;SDS011;1913;50.660;7.834;2023-08-21T13:39:29;4.07;;;3.20;;
3795;SDS011;1913;50.660;7.834;2023-08-21T13:41:55;3.60;;;3.30;;
3795;SDS011;1913;50.660;7.834;2023-08-21T13:44:21;5.10;;;3.40;;
3795;SDS011;1913;50.660;7.834;2023-08-21T13:46:47;4.10;;;3.70;;
3795;SDS011;1913;50.660;7.834;2023-08-21T13:49:12;4.00;;;3.60;;
3795;SDS011;1913;50.660;7.834;2023-08-21T13:51:37;4.47;;;3.03;;
3795;SDS011;1913;50.660;7.834;2023-08-21T13:54:05;9.83;;;3.83;;
3795;SDS011;1913;50.660;7.834;2023-08-21T13:56:31;6.23;;;4.03;;
3795;SDS011;1913;50.660;7.834;2023-08-21T13:58:57;6.37;;;4.17;;
3795;SDS011;1913;50.660;7.834;2023-08-21T14:01:23;4.90;;;3.90;;
3795;SDS011;1913;50.660;7.834;2023-08-21T14:03:48;11.43;;;4.40;;
3795;SDS011;1913;50.660;7.834;2023-08-21T14:06:13;6.40;;;4.83;;
3795;SDS011;1913;50.660;7.834;2023-08-21T14:08:39;9.00;;;5.23;;
3795;SDS011;1913;50.660;7.834;2023-08-21T14:11:04;4.90;;;4.40;;
3795;SDS011;1913;50.660;7.834;2023-08-21T14:13:30;4.90;;;4.50;;
3795;SDS011;1913;50.660;7.834;2023-08-21T14:15:55;7.47;;;4.40;;
3795;SDS011;1913;50.660;7.834;2023-08-21T14:18:21;8.50;;;4.73;;
3795;SDS011;1913;50.660;7.834;2023-08-21T14:20:46;5.00;;;4.60;;
3795;SDS011;1913;50.660;7.834;2023-08-21T14:23:12;9.93;;;5.17;;
3795;SDS011;1913;50.660;7.834;2023-08-21T14:25:38;7.17;;;5.60;;
3795;SDS011;1913;50.660;7.834;2023-08-21T14:28:05;10.70;;;5.63;;
3795;SDS011;1913;50.660;7.834;2023-08-21T14:30:31;8.60;;;6.60;;
3795;SDS011;1913;50.660;7.834;2023-08-21T14:32:57;9.40;;;6.60;;
3795;SDS011;1913;50.660;7.834;2023-08-21T14:35:22;6.87;;;6.07;;
3795;SDS011;1913;50.660;7.834;2023-08-21T14:37:48;7.97;;;6.20;;
3795;SDS011;1913;50.660;7.834;2023-08-21T14:40:14;10.50;;;6.00;;
3795;SDS011;1913;50.660;7.834;2023-08-21T14:42:40;6.93;;;6.30;;
3795;SDS011;1913;50.660;7.834;2023-08-21T14:45:06;8.63;;;6.90;;
3795;SDS011;1913;50.660;7.834;2023-08-21T14:47:32;6.23;;;5.73;;
3795;SDS011;1913;50.660;7.834;2023-08-21T14:49:58;9.13;;;6.57;;
3795;SDS011;1913;50.660;7.834;2023-08-21T14:52:24;6.87;;;5.57;;
3795;SDS011;1913;50.660;7.834;2023-08-21T14:54:50;7.40;;;5.97;;
3795;SDS011;1913;50.660;7.834;2023-08-21T14:57:16;7.40;;;6.40;;
3795;SDS011;1913;50.660;7.834;2023-08-21T14:59:41;6.47;;;5.87;;
3795;SDS011;1913;50.660;7.834;2023-08-21T15:02:08;10.83;;;6.57;;
3795;SDS011;1913;50.660;7.834;2023-08-21T15:04:34;7.87;;;6.10;;
3795;SDS011;1913;50.660;7.834;2023-08-21T15:06:59;12.20;;;6.77;;
3795;SDS011;1913;50.660;7.834;2023-08-21T15:09:25;6.93;;;6.23;;